• Join FlightAware (Why Join?)
  • Login
  • US Flag 
03:21PM EDT


 

Airport Tracker/Info


-or-


 

Live Flight TrackerFlight Track Log ✈ VH-VJE ✈ 17-Apr-2013 ✈ YBBN / BNE - YCCA / CCL

Flight Track Log - Related Links

Times and Time Zones

All times are in EDT time to prevent confusion due to time zone crossing. See the VH-VJE flight status page for this flight to view local times or setup timezone preferences in your user account.

Time Position Orientation Groundspeed Altitude Reporting Facility
EDT Latitude Longitude Course Direction KTS MPH feet Rate Location/Type
08:32PM -27.3880 153.1330 25° Northeast 14 16  Level FlightAware
08:33PM -27.3860 153.1340 24° Northeast 13 15  Level FlightAware
08:33PM -27.3850 153.1350 42° Northeast 11 13  Level FlightAware
08:33PM -27.3850 153.1340 270° West 17 20  Level FlightAware
08:34PM -27.3850 153.1310 270° West 13 15  Level FlightAware
08:34PM -27.3850 153.1300 270° West 11 13  Level FlightAware
08:35PM -27.3850 153.1280 270° West 20 23  Level FlightAware
08:35PM -27.3870 153.1260 222° Southwest 23 26  Level FlightAware
08:35PM -27.3880 153.1250 222° Southwest 19 22  Level FlightAware
08:36PM -27.3900 153.1230 222° Southwest 18 21  Level FlightAware
08:36PM -27.3910 153.1220 222° Southwest 10 12  Level FlightAware
08:37PM -27.3930 153.1220 180° South 7 8  Level FlightAware
08:37PM -27.3930 153.1210 270° West 9 10  Level FlightAware
08:38PM -27.3950 153.1210 180° South 10 12  Level FlightAware
08:38PM -27.3960 153.1210 180° South 5 6  Level FlightAware
08:39PM -27.3960 153.1220 90° East 12 14  Level FlightAware
08:39PM -27.3950 153.1220 360° North 20 23 60 Level FlightAware
08:40PM -27.3890 153.1260 31° Northeast 117 135 100 840 Climbing FlightAware
08:40PM -27.3759 153.1339 31° Northeast 118 136 700 1,200 Climbing Aus ATC (RADAR)
08:40PM -27.3740 153.1360 31° Northeast 138 159 700 540 Level FlightAware
08:41PM -27.3650 153.1400 22° Northeast 149 171 900 780 Climbing FlightAware
08:41PM -27.3550 153.1410 North 163 188 1,100 1,200 Climbing FlightAware
08:41PM -27.3370 153.1410 360° North 165 190 1,700 1,200 Climbing FlightAware
08:42PM -27.3150 153.1430 North 177 204 2,200 1,200 Climbing FlightAware
08:42PM -27.2952 153.1456 North 163 188 2,800 1,440 Climbing Aus ATC (RADAR)
08:42PM -27.2950 153.1450 North 174 200 2,800 1,080 Level FlightAware
08:43PM -27.2730 153.1470 North 174 200 3,400 1,080 Climbing FlightAware
08:43PM -27.2520 153.1480 North 181 208 3,800 1,200 Climbing FlightAware
08:44PM -27.2280 153.1500 North 178 205 4,500 1,320 Climbing FlightAware
08:44PM -27.2160 153.1490 356° North 177 204 4,800 960 Climbing FlightAware
08:44PM -27.2050 153.1440 338° Northwest 184 212 5,000 1,020 Climbing FlightAware
08:45PM -27.1910 153.1280 315° West 184 212 5,500 1,200 Climbing FlightAware
08:45PM -27.1860 153.1160 295° West 181 208 5,800 960 Climbing FlightAware
08:45PM -27.1850 153.1030 275° West 189 217 6,000 900 Climbing FlightAware
08:46PM -27.1900 153.0770 258° West 189 217 6,500 1,080 Climbing FlightAware
08:46PM -27.1970 153.0560 249° West 190 219 7,000 1,080 Climbing FlightAware
08:46PM -27.2050 153.0320 249° West 192 221 7,500 1,080 Climbing FlightAware
08:47PM -27.2100 153.0100 256° West 194 223 8,000 960 Climbing FlightAware
08:47PM -27.2170 152.9840 253° West 197 227 8,400 840 Climbing FlightAware
08:48PM -27.2220 152.9620 256° West 197 227 8,800 1,020 Climbing FlightAware
08:48PM -27.2250 152.9490 255° West 199 229 9,100 780 Climbing FlightAware
08:49PM -27.2310 152.9230 255° West 201 231 9,400 600 Climbing FlightAware
08:49PM -27.2390 152.8970 251° West 208 239 9,700 540 Climbing FlightAware
08:49PM -27.2450 152.8740 254° West 215 247 9,900 180 Climbing FlightAware
08:50PM -27.2530 152.8460 252° West 226 260 9,900 60 Level FlightAware
08:50PM -27.2590 152.8200 255° West 228 262 10,000 120 Climbing FlightAware
08:51PM -27.2655 152.7946 255° West 203 234 10,000  Level Aus ATC (RADAR)
08:51PM -27.2670 152.7890 255° West 230 265 10,000  Level FlightAware
08:51PM -27.2720 152.7570 260° West 232 267 10,000 -120 Level FlightAware
08:52PM -27.2700 152.7310 275° West 234 269 9,900 -120 Descending FlightAware
08:53PM -27.2590 152.6830 284° West 237 273 9,900 60 Level FlightAware
08:53PM -27.2540 152.6550 281° West 232 267 10,000  Climbing FlightAware
08:53PM -27.2480 152.6250 283° West 234 269 9,900 -120 Descending FlightAware
08:54PM -27.2420 152.5970 284° West 230 265 9,900 60 Level FlightAware
08:54PM -27.2360 152.5660 282° West 227 261 10,000  Climbing FlightAware
08:55PM -27.2270 152.5360 289° West 229 264 9,900 -120 Descending FlightAware
08:55PM -27.2210 152.5100 285° West 230 265 9,900  Level FlightAware
08:56PM -27.2156 152.4905 285° West 201 231 9,900  Level Aus ATC (RADAR)
08:56PM -27.2130 152.4790 285° West 228 262 9,900  Level FlightAware
08:56PM -27.2080 152.4630 289° West 229 264 9,900  Level FlightAware
08:56PM -27.2010 152.4380 287° West 228 262 9,900  Level FlightAware
08:57PM -27.1930 152.4080 287° West 228 262 9,900  Level FlightAware
08:57PM -27.1860 152.3760 284° West 225 259 9,900  Level FlightAware
08:58PM -27.1820 152.3510 280° West 229 264 9,900 120 Level FlightAware
08:58PM -27.1768 152.3313 280° West 202 232 10,000  Climbing Aus ATC (RADAR)
08:58PM -27.1750 152.3190 280° West 227 261 9,900  Descending FlightAware
08:59PM -27.1690 152.2880 282° West 225 259 10,000  Climbing FlightAware
08:59PM -27.1630 152.2640 286° West 228 262 9,900  Descending FlightAware
09:00PM -27.1577 152.2434 286° West 203 234 10,000  Climbing Aus ATC (RADAR)
09:00PM -27.1560 152.2320 286° West 230 265 9,900 -180 Descending FlightAware
09:00PM -27.1500 152.2050 284° West 228 262 9,900  Level FlightAware
09:01PM -27.1430 152.1750 285° West 228 262 9,900  Level FlightAware
09:01PM -27.1366 152.1496 285° West 205 236 9,900  Level Aus ATC (RADAR)
09:01PM -27.1350 152.1440 285° West 227 261 9,900  Level FlightAware
09:02PM -27.1280 152.1180 287° West 229 264 9,900  Level FlightAware
09:02PM -27.1210 152.0860 284° West 227 261 9,900  Level FlightAware
09:03PM -27.1210 152.0600 270° West 227 261 9,900  Level FlightAware
09:03PM -27.1210 152.0270 270° West 227 261 9,900  Level FlightAware
09:03PM -27.1200 152.0050 273° West 228 262 9,900  Level FlightAware
09:04PM -27.1180 151.9750 274° West 9,900  Level FlightAware
09:04PM -27.1160 151.9520 276° West 224 258 9,900  Level FlightAware
09:05PM -27.1141 151.9270 276° West 203 234 9,900  Level Aus ATC (RADAR)
09:05PM -27.1140 151.9280 276° West 229 264 9,900  Level FlightAware
09:05PM -27.1090 151.8830 277° West 10,000  Climbing FlightAware
09:06PM -27.1010 151.8490 285° West 228 262 9,900  Descending FlightAware
09:06PM -27.0910 151.8290 285° West 9,900 240 Level FlightAware
09:06PM -27.0887 151.8246 285° West 204 235 10,000 60 Climbing Aus ATC (RADAR)
09:06PM -27.0820 151.8140 304° West 9,900  Descending FlightAware
09:07PM -27.0629 151.7785 304° West 205 236 10,000 60 Climbing Aus ATC (RADAR)
09:08PM -27.0370 151.7320 304° West 225 259 10,000  Level FlightAware
09:08PM -27.0295 151.7130 304° West 204 235 10,000  Level Aus ATC (RADAR)
09:08PM -27.0320 151.7180 304° West 225 259 10,000 -180 Level FlightAware
09:09PM -27.0234 151.6754 304° West 206 237 9,900  Descending Aus ATC (RADAR)
09:09PM -27.0200 151.6600 304° West 229 264 10,000 120 Climbing FlightAware
09:10PM -27.0170 151.6320 277° West 229 264 10,000  Level FlightAware
09:10PM -27.0130 151.6020 279° West 229 264 10,000  Level FlightAware
09:10PM -27.0100 151.5820 280° West 229 264 10,000  Level FlightAware
09:11PM -27.0070 151.5520 276° West 229 264 10,000  Level FlightAware
09:11PM -27.0050 151.5420 283° West 229 264 10,000 -240 Level FlightAware
09:11PM -26.9877 151.5130 283° West 203 234 9,900 -360 Descending Aus ATC (RADAR)
09:12PM -26.9809 151.4809 283° West 208 239 9,700 -420 Descending Aus ATC (RADAR)
09:13PM -26.9672 151.4173 284° West 208 239 9,300 -480 Descending Aus ATC (RADAR)
09:13PM -26.9560 151.3809 289° West 210 242 9,000 -720 Descending Aus ATC (RADAR)
09:14PM -26.9391 151.3207 288° West 202 232 8,200 -840 Descending Aus ATC (RADAR)
09:15PM -26.9288 151.2861 288° West 199 229 7,700 -780 Descending Aus ATC (RADAR)
09:16PM -26.9143 151.2228 284° West 193 222 6,900 -720 Descending Aus ATC (RADAR)
09:17PM -26.9048 151.1732 282° West 193 222 6,400 -840 Descending Aus ATC (RADAR)
09:18PM -26.8970 151.1095 278° West 194 223 5,400 -780 Descending Aus ATC (RADAR)
09:19PM -26.8874 151.0706 285° West 195 224 5,100 -720 Descending Aus ATC (RADAR)
09:19PM -26.8741 151.0284 289° West 191 220 4,400 -780 Descending Aus ATC (RADAR)
09:20PM -26.8694 150.9937 279° West 190 219 4,100 -300 Descending Aus ATC (RADAR)
09:21PM -26.8608 150.9273 278° West 196 226 3,900 -240 Descending Aus ATC (RADAR)
09:21PM -26.8586 150.9124 279° West 195 224 3,800 -600 Descending Aus ATC (RADAR)
09:22PM -26.8524 150.8726 280° West 194 223 3,400 -360 Descending Aus ATC (RADAR)
09:23PM -26.8454 150.8153 278° West 179 206 3,200 -300 Descending Aus ATC (RADAR)
09:24PM -26.8430 150.7823 275° West 180 207 3,000 -420 Descending Aus ATC (RADAR)
09:25PM -26.8371 150.7266 277° West 179 206 2,600 -360 Descending Aus ATC (RADAR)
09:25PM -26.8338 150.6937 276° West 181 208 2,500 -180 Descending Aus ATC (RADAR)
09:29PM -26.7867 150.6320 310° West  Level Estimated
09:36PM -26.7750 150.6167 311° West  Level Estimated
09:37PM -26.7750 150.6167 270° West  Level Estimated
09:38PM -26.7750 150.6167 270° West  Level Estimated
09:39PM -26.7750 150.6167 270° West  Level Estimated
09:40PM -26.7750 150.6167 270° West  Level Estimated
09:41PM -26.7750 150.6167 270° West  Level Estimated
09:42PM -26.7750 150.6167 270° West  Level Estimated
09:43PM -26.7750 150.6167 270° West  Level Estimated
09:44PM -26.7750 150.6167 270° West  Level Estimated
09:45PM -26.7750 150.6167 270° West  Level Estimated
09:46PM -26.7750 150.6167 270° West  Level Estimated
09:47PM -26.7750 150.6167 270° West  Level Estimated
09:48PM -26.7750 150.6167 270° West  Level Estimated
09:49PM -26.7750 150.6167 270° West  Level Estimated
09:50PM -26.7750 150.6167 270° West  Level Estimated
09:51PM -26.7750 150.6167 270° West  Level Estimated
09:52PM -26.7750 150.6167 270° West  Level Estimated
09:53PM -26.7750 150.6167 270° West  Level Estimated
09:54PM -26.7750 150.6167 270° West  Level Estimated